sensor_id;sensor_type;location;lat;lon;timestamp;pressure;altitude;pressure_sealevel;temperature
20730;BMP280;10526;50.850;12.928;2023-02-11T00:00:45;99528.56;;;0.35
20730;BMP280;10526;50.850;12.928;2023-02-11T00:05:08;99516.09;;;0.27
20730;BMP280;10526;50.850;12.928;2023-02-11T00:09:30;99525.66;;;0.36
20730;BMP280;10526;50.850;12.928;2023-02-11T00:13:52;99512.25;;;0.38
20730;BMP280;10526;50.850;12.928;2023-02-11T00:18:15;99513.75;;;0.44
20730;BMP280;10526;50.850;12.928;2023-02-11T00:22:37;99517.50;;;0.38
20730;BMP280;10526;50.850;12.928;2023-02-11T00:26:59;99505.75;;;0.35
20730;BMP280;10526;50.850;12.928;2023-02-11T00:31:23;99503.72;;;0.32
20730;BMP280;10526;50.850;12.928;2023-02-11T00:35:46;99506.53;;;0.36
20730;BMP280;10526;50.850;12.928;2023-02-11T00:40:08;99493.09;;;0.42
20730;BMP280;10526;50.850;12.928;2023-02-11T00:44:31;99482.59;;;0.42
20730;BMP280;10526;50.850;12.928;2023-02-11T00:48:53;99476.22;;;0.48
20730;BMP280;10526;50.850;12.928;2023-02-11T00:53:18;99480.13;;;0.51
20730;BMP280;10526;50.850;12.928;2023-02-11T00:57:40;99463.53;;;0.56
20730;BMP280;10526;50.850;12.928;2023-02-11T01:02:02;99445.59;;;0.63
20730;BMP280;10526;50.850;12.928;2023-02-11T01:06:24;99434.47;;;0.71
20730;BMP280;10526;50.850;12.928;2023-02-11T01:11:01;99422.53;;;0.79
20730;BMP280;10526;50.850;12.928;2023-02-11T01:15:24;99411.91;;;0.89
20730;BMP280;10526;50.850;12.928;2023-02-11T01:19:46;99421.78;;;0.92
20730;BMP280;10526;50.850;12.928;2023-02-11T01:24:08;99431.13;;;0.98
20730;BMP280;10526;50.850;12.928;2023-02-11T01:28:31;99430.00;;;1.04
20730;BMP280;10526;50.850;12.928;2023-02-11T01:32:53;99440.09;;;1.11
20730;BMP280;10526;50.850;12.928;2023-02-11T01:37:16;99431.56;;;1.05
20730;BMP280;10526;50.850;12.928;2023-02-11T01:41:38;99414.84;;;1.01
20730;BMP280;10526;50.850;12.928;2023-02-11T01:50:35;99389.97;;;1.12
20730;BMP280;10526;50.850;12.928;2023-02-11T01:55:07;99386.19;;;1.18
20730;BMP280;10526;50.850;12.928;2023-02-11T02:00:38;99378.91;;;1.29
20730;BMP280;10526;50.850;12.928;2023-02-11T02:09:39;99377.09;;;1.38
20730;BMP280;10526;50.850;12.928;2023-02-11T02:14:03;99381.72;;;1.33
20730;BMP280;10526;50.850;12.928;2023-02-11T02:23:21;99376.75;;;1.17
20730;BMP280;10526;50.850;12.928;2023-02-11T02:37:39;99363.09;;;1.70
20730;BMP280;10526;50.850;12.928;2023-02-11T02:42:04;99364.13;;;1.83
20730;BMP280;10526;50.850;12.928;2023-02-11T02:46:32;99356.78;;;1.94
20730;BMP280;10526;50.850;12.928;2023-02-11T02:56:07;99358.50;;;2.12
20730;BMP280;10526;50.850;12.928;2023-02-11T03:00:59;99375.41;;;2.20
20730;BMP280;10526;50.850;12.928;2023-02-11T03:06:09;99362.91;;;2.26
20730;BMP280;10526;50.850;12.928;2023-02-11T03:10:40;99348.56;;;2.32
20730;BMP280;10526;50.850;12.928;2023-02-11T03:15:06;99359.53;;;2.34
20730;BMP280;10526;50.850;12.928;2023-02-11T03:19:40;99324.50;;;2.38
20730;BMP280;10526;50.850;12.928;2023-02-11T03:24:09;99311.97;;;2.44
20730;BMP280;10526;50.850;12.928;2023-02-11T03:29:42;99307.66;;;2.48
20730;BMP280;10526;50.850;12.928;2023-02-11T03:34:10;99307.25;;;2.55
20730;BMP280;10526;50.850;12.928;2023-02-11T03:38:47;99307.88;;;2.60
20730;BMP280;10526;50.850;12.928;2023-02-11T03:43:15;99293.69;;;2.61
20730;BMP280;10526;50.850;12.928;2023-02-11T03:47:45;99297.84;;;2.62
20730;BMP280;10526;50.850;12.928;2023-02-11T03:52:08;99301.72;;;2.65
20730;BMP280;10526;50.850;12.928;2023-02-11T03:56:40;99318.28;;;2.65
20730;BMP280;10526;50.850;12.928;2023-02-11T04:01:03;99315.50;;;2.70
20730;BMP280;10526;50.850;12.928;2023-02-11T04:05:25;99304.38;;;2.73
20730;BMP280;10526;50.850;12.928;2023-02-11T04:09:47;99302.38;;;2.79
20730;BMP280;10526;50.850;12.928;2023-02-11T04:14:09;99280.88;;;2.77
20730;BMP280;10526;50.850;12.928;2023-02-11T04:18:32;99268.19;;;2.79
20730;BMP280;10526;50.850;12.928;2023-02-11T04:22:54;99273.00;;;2.77
20730;BMP280;10526;50.850;12.928;2023-02-11T04:27:15;99263.53;;;2.76
20730;BMP280;10526;50.850;12.928;2023-02-11T04:31:37;99269.06;;;2.66
20730;BMP280;10526;50.850;12.928;2023-02-11T04:36:00;99272.00;;;2.64
20730;BMP280;10526;50.850;12.928;2023-02-11T04:40:22;99272.47;;;2.66
20730;BMP280;10526;50.850;12.928;2023-02-11T04:44:44;99278.69;;;2.70
20730;BMP280;10526;50.850;12.928;2023-02-11T04:49:06;99277.75;;;2.75
20730;BMP280;10526;50.850;12.928;2023-02-11T04:53:28;99274.81;;;2.77
20730;BMP280;10526;50.850;12.928;2023-02-11T04:57:50;99286.59;;;2.79
20730;BMP280;10526;50.850;12.928;2023-02-11T05:02:12;99296.84;;;2.81
20730;BMP280;10526;50.850;12.928;2023-02-11T05:06:34;99307.81;;;2.83
20730;BMP280;10526;50.850;12.928;2023-02-11T05:10:58;99300.88;;;2.87
20730;BMP280;10526;50.850;12.928;2023-02-11T05:15:22;99287.72;;;2.87
20730;BMP280;10526;50.850;12.928;2023-02-11T05:19:44;99294.22;;;2.89
20730;BMP280;10526;50.850;12.928;2023-02-11T05:24:07;99298.91;;;2.92
20730;BMP280;10526;50.850;12.928;2023-02-11T05:28:30;99294.69;;;2.91
20730;BMP280;10526;50.850;12.928;2023-02-11T05:32:53;99295.00;;;2.90
20730;BMP280;10526;50.850;12.928;2023-02-11T05:37:16;99296.53;;;2.91
20730;BMP280;10526;50.850;12.928;2023-02-11T05:41:38;99295.47;;;2.92
20730;BMP280;10526;50.850;12.928;2023-02-11T05:46:02;99281.25;;;2.93
20730;BMP280;10526;50.850;12.928;2023-02-11T05:50:25;99267.00;;;2.94
20730;BMP280;10526;50.850;12.928;2023-02-11T05:54:47;99276.13;;;2.96
20730;BMP280;10526;50.850;12.928;2023-02-11T05:59:09;99282.16;;;2.97
20730;BMP280;10526;50.850;12.928;2023-02-11T06:03:32;99284.78;;;2.97
20730;BMP280;10526;50.850;12.928;2023-02-11T06:07:54;99277.34;;;2.99
20730;BMP280;10526;50.850;12.928;2023-02-11T06:12:16;99274.88;;;3.03
20730;BMP280;10526;50.850;12.928;2023-02-11T06:16:39;99276.75;;;3.02
20730;BMP280;10526;50.850;12.928;2023-02-11T06:21:05;99277.41;;;3.08
20730;BMP280;10526;50.850;12.928;2023-02-11T06:25:27;99292.38;;;3.07
20730;BMP280;10526;50.850;12.928;2023-02-11T06:29:49;99283.44;;;3.08
20730;BMP280;10526;50.850;12.928;2023-02-11T06:34:14;99289.47;;;3.09
20730;BMP280;10526;50.850;12.928;2023-02-11T06:38:36;99283.88;;;3.10
20730;BMP280;10526;50.850;12.928;2023-02-11T06:42:59;99279.09;;;3.12
20730;BMP280;10526;50.850;12.928;2023-02-11T06:47:21;99286.69;;;3.14
20730;BMP280;10526;50.850;12.928;2023-02-11T06:51:42;99285.59;;;3.15
20730;BMP280;10526;50.850;12.928;2023-02-11T06:56:08;99277.41;;;3.16
20730;BMP280;10526;50.850;12.928;2023-02-11T07:00:31;99272.59;;;3.18
20730;BMP280;10526;50.850;12.928;2023-02-11T07:04:52;99264.69;;;3.18
20730;BMP280;10526;50.850;12.928;2023-02-11T07:09:15;99272.00;;;3.21
20730;BMP280;10526;50.850;12.928;2023-02-11T07:13:37;99281.16;;;3.24
20730;BMP280;10526;50.850;12.928;2023-02-11T07:17:59;99283.00;;;3.32
20730;BMP280;10526;50.850;12.928;2023-02-11T07:22:21;99276.78;;;3.37
20730;BMP280;10526;50.850;12.928;2023-02-11T07:26:43;99272.28;;;3.37
20730;BMP280;10526;50.850;12.928;2023-02-11T07:31:10;99275.25;;;3.36
20730;BMP280;10526;50.850;12.928;2023-02-11T07:35:32;99278.34;;;3.38
20730;BMP280;10526;50.850;12.928;2023-02-11T07:39:54;99278.66;;;3.36
20730;BMP280;10526;50.850;12.928;2023-02-11T07:44:17;99287.34;;;3.45
20730;BMP280;10526;50.850;12.928;2023-02-11T07:48:39;99279.44;;;3.54
20730;BMP280;10526;50.850;12.928;2023-02-11T07:53:01;99285.63;;;3.58
20730;BMP280;10526;50.850;12.928;2023-02-11T07:57:23;99277.72;;;3.67
20730;BMP280;10526;50.850;12.928;2023-02-11T08:01:45;99284.22;;;3.78
20730;BMP280;10526;50.850;12.928;2023-02-11T08:06:12;99279.88;;;3.82
20730;BMP280;10526;50.850;12.928;2023-02-11T08:10:34;99283.59;;;3.81
20730;BMP280;10526;50.850;12.928;2023-02-11T08:14:56;99286.84;;;3.78
20730;BMP280;10526;50.850;12.928;2023-02-11T08:19:18;99286.88;;;3.69
20730;BMP280;10526;50.850;12.928;2023-02-11T08:23:42;99287.81;;;3.73
20730;BMP280;10526;50.850;12.928;2023-02-11T08:28:04;99293.09;;;3.73
20730;BMP280;10526;50.850;12.928;2023-02-11T08:32:26;99274.78;;;3.68
20730;BMP280;10526;50.850;12.928;2023-02-11T08:36:48;99279.75;;;3.61
20730;BMP280;10526;50.850;12.928;2023-02-11T08:41:11;99279.13;;;3.73
20730;BMP280;10526;50.850;12.928;2023-02-11T08:45:36;99269.78;;;3.75
20730;BMP280;10526;50.850;12.928;2023-02-11T08:49:58;99270.09;;;3.83
20730;BMP280;10526;50.850;12.928;2023-02-11T08:54:20;99282.50;;;3.91
20730;BMP280;10526;50.850;12.928;2023-02-11T08:58:43;99286.41;;;3.85
20730;BMP280;10526;50.850;12.928;2023-02-11T09:03:05;99293.63;;;4.05
20730;BMP280;10526;50.850;12.928;2023-02-11T09:07:28;99283.81;;;4.32
20730;BMP280;10526;50.850;12.928;2023-02-11T09:11:49;99284.00;;;4.56
20730;BMP280;10526;50.850;12.928;2023-02-11T09:16:21;99281.84;;;4.58
20730;BMP280;10526;50.850;12.928;2023-02-11T09:20:43;99263.44;;;4.70
20730;BMP280;10526;50.850;12.928;2023-02-11T09:25:06;99290.94;;;4.69
20730;BMP280;10526;50.850;12.928;2023-02-11T09:29:28;99295.81;;;4.79
20730;BMP280;10526;50.850;12.928;2023-02-11T09:33:54;99313.28;;;4.63
20730;BMP280;10526;50.850;12.928;2023-02-11T09:38:18;99308.78;;;4.64
20730;BMP280;10526;50.850;12.928;2023-02-11T09:42:45;99313.19;;;4.51
20730;BMP280;10526;50.850;12.928;2023-02-11T09:47:34;99316.03;;;4.46
20730;BMP280;10526;50.850;12.928;2023-02-11T09:52:07;99327.78;;;4.48
20730;BMP280;10526;50.850;12.928;2023-02-11T09:56:34;99345.53;;;4.39
20730;BMP280;10526;50.850;12.928;2023-02-11T10:24:24;99321.78;;;5.07
20730;BMP280;10526;50.850;12.928;2023-02-11T10:28:52;99323.63;;;5.07
20730;BMP280;10526;50.850;12.928;2023-02-11T10:38:46;99295.94;;;4.92
20730;BMP280;10526;50.850;12.928;2023-02-11T10:43:15;99309.03;;;5.09
20730;BMP280;10526;50.850;12.928;2023-02-11T10:47:38;99300.59;;;5.16
20730;BMP280;10526;50.850;12.928;2023-02-11T10:52:24;99305.81;;;5.24
20730;BMP280;10526;50.850;12.928;2023-02-11T10:56:50;99288.41;;;5.44
20730;BMP280;10526;50.850;12.928;2023-02-11T11:01:20;99288.66;;;5.72
20730;BMP280;10526;50.850;12.928;2023-02-11T11:05:56;99295.09;;;5.96
20730;BMP280;10526;50.850;12.928;2023-02-11T11:10:47;99312.03;;;5.95
20730;BMP280;10526;50.850;12.928;2023-02-11T11:15:16;99315.28;;;5.79
20730;BMP280;10526;50.850;12.928;2023-02-11T11:19:39;99304.50;;;5.72
20730;BMP280;10526;50.850;12.928;2023-02-11T11:24:03;99306.28;;;5.80
20730;BMP280;10526;50.850;12.928;2023-02-11T11:28:27;99303.84;;;5.75
20730;BMP280;10526;50.850;12.928;2023-02-11T11:32:50;99296.63;;;5.64
20730;BMP280;10526;50.850;12.928;2023-02-11T11:37:32;99298.88;;;5.53
20730;BMP280;10526;50.850;12.928;2023-02-11T11:42:01;99296.25;;;5.53
20730;BMP280;10526;50.850;12.928;2023-02-11T11:46:37;99300.00;;;5.52
20730;BMP280;10526;50.850;12.928;2023-02-11T11:51:10;99295.06;;;5.63
20730;BMP280;10526;50.850;12.928;2023-02-11T11:55:50;99299.13;;;5.93
20730;BMP280;10526;50.850;12.928;2023-02-11T12:00:48;99293.06;;;5.80
20730;BMP280;10526;50.850;12.928;2023-02-11T12:05:35;99285.44;;;5.79
20730;BMP280;10526;50.850;12.928;2023-02-11T12:15:07;99284.13;;;5.73
20730;BMP280;10526;50.850;12.928;2023-02-11T12:20:12;99290.19;;;5.52
20730;BMP280;10526;50.850;12.928;2023-02-11T12:25:29;99291.38;;;5.43
20730;BMP280;10526;50.850;12.928;2023-02-11T12:39:34;99304.78;;;5.59
20730;BMP280;10526;50.850;12.928;2023-02-11T12:43:58;99296.38;;;5.56
20730;BMP280;10526;50.850;12.928;2023-02-11T12:57:58;99285.44;;;5.46
20730;BMP280;10526;50.850;12.928;2023-02-11T13:07:20;99278.78;;;5.27
20730;BMP280;10526;50.850;12.928;2023-02-11T13:11:49;99278.78;;;5.27
20730;BMP280;10526;50.850;12.928;2023-02-11T13:26:40;99288.22;;;5.28
20730;BMP280;10526;50.850;12.928;2023-02-11T13:31:07;99279.94;;;5.30
20730;BMP280;10526;50.850;12.928;2023-02-11T13:35:36;99282.72;;;5.34
20730;BMP280;10526;50.850;12.928;2023-02-11T13:40:25;99284.47;;;5.29
20730;BMP280;10526;50.850;12.928;2023-02-11T13:44:47;99289.34;;;5.27
20730;BMP280;10526;50.850;12.928;2023-02-11T13:54:02;99278.00;;;5.27
20730;BMP280;10526;50.850;12.928;2023-02-11T14:13:32;99282.38;;;5.23
20730;BMP280;10526;50.850;12.928;2023-02-11T14:17:55;99274.75;;;5.21
20730;BMP280;10526;50.850;12.928;2023-02-11T14:22:52;99277.41;;;5.21
20730;BMP280;10526;50.850;12.928;2023-02-11T14:27:35;99271.34;;;5.21
20730;BMP280;10526;50.850;12.928;2023-02-11T14:37:17;99273.41;;;5.15
20730;BMP280;10526;50.850;12.928;2023-02-11T14:41:45;99288.16;;;5.16
20730;BMP280;10526;50.850;12.928;2023-02-11T14:46:09;99284.28;;;5.14
20730;BMP280;10526;50.850;12.928;2023-02-11T14:50:45;99292.41;;;5.09
20730;BMP280;10526;50.850;12.928;2023-02-11T14:55:28;99300.19;;;5.05
20730;BMP280;10526;50.850;12.928;2023-02-11T15:00:02;99289.97;;;5.03
20730;BMP280;10526;50.850;12.928;2023-02-11T15:04:32;99287.81;;;4.97
20730;BMP280;10526;50.850;12.928;2023-02-11T15:13:28;99292.66;;;4.95
20730;BMP280;10526;50.850;12.928;2023-02-11T15:17:52;99306.03;;;4.90
20730;BMP280;10526;50.850;12.928;2023-02-11T15:22:24;99302.47;;;4.86
20730;BMP280;10526;50.850;12.928;2023-02-11T15:31:36;99312.22;;;4.94
20730;BMP280;10526;50.850;12.928;2023-02-11T15:36:00;99316.59;;;4.90
20730;BMP280;10526;50.850;12.928;2023-02-11T15:40:29;99305.13;;;4.86
20730;BMP280;10526;50.850;12.928;2023-02-11T15:49:36;99314.28;;;4.88
20730;BMP280;10526;50.850;12.928;2023-02-11T15:54:26;99317.69;;;4.89
20730;BMP280;10526;50.850;12.928;2023-02-11T15:58:52;99314.28;;;4.88
20730;BMP280;10526;50.850;12.928;2023-02-11T16:03:27;99318.75;;;4.88
20730;BMP280;10526;50.850;12.928;2023-02-11T16:07:54;99318.75;;;4.88
20730;BMP280;10526;50.850;12.928;2023-02-11T16:12:23;99315.06;;;4.89
20730;BMP280;10526;50.850;12.928;2023-02-11T16:16:51;99316.59;;;4.90
20730;BMP280;10526;50.850;12.928;2023-02-11T16:21:16;99329.03;;;4.89
20730;BMP280;10526;50.850;12.928;2023-02-11T16:25:41;99327.63;;;4.92
20730;BMP280;10526;50.850;12.928;2023-02-11T16:30:04;99344.25;;;4.92
20730;BMP280;10526;50.850;12.928;2023-02-11T16:34:27;99348.28;;;4.90
20730;BMP280;10526;50.850;12.928;2023-02-11T16:38:49;99351.25;;;4.88
20730;BMP280;10526;50.850;12.928;2023-02-11T16:43:11;99348.91;;;4.87
20730;BMP280;10526;50.850;12.928;2023-02-11T16:47:34;99352.63;;;4.86
20730;BMP280;10526;50.850;12.928;2023-02-11T16:52:01;99351.72;;;4.82
20730;BMP280;10526;50.850;12.928;2023-02-11T16:56:26;99357.75;;;4.82
20730;BMP280;10526;50.850;12.928;2023-02-11T17:00:48;99371.44;;;4.84
20730;BMP280;10526;50.850;12.928;2023-02-11T17:05:21;99374.22;;;4.79
20730;BMP280;10526;50.850;12.928;2023-02-11T17:09:43;99368.25;;;4.61
20730;BMP280;10526;50.850;12.928;2023-02-11T17:14:06;99374.50;;;4.48
20730;BMP280;10526;50.850;12.928;2023-02-11T17:18:28;99381.06;;;4.33
20730;BMP280;10526;50.850;12.928;2023-02-11T17:22:50;99392.38;;;4.25
20730;BMP280;10526;50.850;12.928;2023-02-11T17:27:12;99386.94;;;4.21
20730;BMP280;10526;50.850;12.928;2023-02-11T17:31:35;99385.59;;;4.15
20730;BMP280;10526;50.850;12.928;2023-02-11T17:35:57;99390.72;;;4.12
20730;BMP280;10526;50.850;12.928;2023-02-11T17:40:20;99388.69;;;4.09
20730;BMP280;10526;50.850;12.928;2023-02-11T17:44:43;99389.63;;;4.04
20730;BMP280;10526;50.850;12.928;2023-02-11T17:49:05;99390.53;;;3.99
20730;BMP280;10526;50.850;12.928;2023-02-11T17:53:27;99394.13;;;3.95
20730;BMP280;10526;50.850;12.928;2023-02-11T17:57:49;99402.03;;;3.95
20730;BMP280;10526;50.850;12.928;2023-02-11T18:02:12;99404.03;;;3.98
20730;BMP280;10526;50.850;12.928;2023-02-11T18:06:34;99392.41;;;3.99
20730;BMP280;10526;50.850;12.928;2023-02-11T18:10:56;99393.69;;;3.93
20730;BMP280;10526;50.850;12.928;2023-02-11T18:15:18;99389.78;;;3.90
20730;BMP280;10526;50.850;12.928;2023-02-11T18:19:40;99388.25;;;3.89
20730;BMP280;10526;50.850;12.928;2023-02-11T18:24:03;99382.97;;;3.89
20730;BMP280;10526;50.850;12.928;2023-02-11T18:28:27;99400.03;;;3.92
20730;BMP280;10526;50.850;12.928;2023-02-11T18:32:54;99412.13;;;3.93
20730;BMP280;10526;50.850;12.928;2023-02-11T18:37:16;99413.66;;;3.94
20730;BMP280;10526;50.850;12.928;2023-02-11T18:41:39;99409.94;;;3.95
20730;BMP280;10526;50.850;12.928;2023-02-11T18:46:11;99399.09;;;3.96
20730;BMP280;10526;50.850;12.928;2023-02-11T18:50:34;99420.97;;;3.97
20730;BMP280;10526;50.850;12.928;2023-02-11T18:54:56;99429.78;;;4.01
20730;BMP280;10526;50.850;12.928;2023-02-11T18:59:18;99423.41;;;4.02
20730;BMP280;10526;50.850;12.928;2023-02-11T19:03:41;99434.44;;;4.04
20730;BMP280;10526;50.850;12.928;2023-02-11T19:08:03;99442.97;;;4.10
20730;BMP280;10526;50.850;12.928;2023-02-11T19:12:25;99441.41;;;4.09
20730;BMP280;10526;50.850;12.928;2023-02-11T19:16:49;99453.22;;;4.11
20730;BMP280;10526;50.850;12.928;2023-02-11T19:21:12;99449.94;;;4.14
20730;BMP280;10526;50.850;12.928;2023-02-11T19:25:35;99464.38;;;4.17
20730;BMP280;10526;50.850;12.928;2023-02-11T19:29:57;99458.75;;;4.18
20730;BMP280;10526;50.850;12.928;2023-02-11T19:34:20;99468.25;;;4.19
20730;BMP280;10526;50.850;12.928;2023-02-11T19:38:44;99471.19;;;4.18
20730;BMP280;10526;50.850;12.928;2023-02-11T19:43:06;99475.25;;;4.15
20730;BMP280;10526;50.850;12.928;2023-02-11T19:47:28;99488.13;;;4.17
20730;BMP280;10526;50.850;12.928;2023-02-11T19:51:51;99503.59;;;4.18
20730;BMP280;10526;50.850;12.928;2023-02-11T19:56:15;99500.94;;;4.18
20730;BMP280;10526;50.850;12.928;2023-02-11T20:00:41;99503.59;;;4.18
20730;BMP280;10526;50.850;12.928;2023-02-11T20:05:04;99523.31;;;4.21
20730;BMP280;10526;50.850;12.928;2023-02-11T20:09:26;99522.22;;;4.22
20730;BMP280;10526;50.850;12.928;2023-02-11T20:13:50;99521.44;;;4.21
20730;BMP280;10526;50.850;12.928;2023-02-11T20:18:12;99532.94;;;4.25
20730;BMP280;10526;50.850;12.928;2023-02-11T20:22:34;99543.34;;;4.31
20730;BMP280;10526;50.850;12.928;2023-02-11T20:26:56;99551.13;;;4.36
20730;BMP280;10526;50.850;12.928;2023-02-11T20:31:19;99554.84;;;4.35
20730;BMP280;10526;50.850;12.928;2023-02-11T20:35:41;99540.25;;;4.37
20730;BMP280;10526;50.850;12.928;2023-02-11T20:40:05;99549.09;;;4.50
20730;BMP280;10526;50.850;12.928;2023-02-11T20:44:27;99551.56;;;4.55
20730;BMP280;10526;50.850;12.928;2023-02-11T20:48:51;99552.47;;;4.59
20730;BMP280;10526;50.850;12.928;2023-02-11T20:53:13;99551.38;;;4.60
20730;BMP280;10526;50.850;12.928;2023-02-11T20:57:35;99545.50;;;4.63
20730;BMP280;10526;50.850;12.928;2023-02-11T21:01:57;99534.78;;;4.68
20730;BMP280;10526;50.850;12.928;2023-02-11T21:06:22;99548.31;;;4.67
20730;BMP280;10526;50.850;12.928;2023-02-11T21:10:44;99543.63;;;4.72
20730;BMP280;10526;50.850;12.928;2023-02-11T21:15:08;99535.88;;;4.76
20730;BMP280;10526;50.850;12.928;2023-02-11T21:19:32;99551.84;;;4.79
20730;BMP280;10526;50.850;12.928;2023-02-11T21:23:54;99552.78;;;4.84
20730;BMP280;10526;50.850;12.928;2023-02-11T21:28:16;99556.97;;;4.85
20730;BMP280;10526;50.850;12.928;2023-02-11T21:32:38;99565.50;;;4.90
20730;BMP280;10526;50.850;12.928;2023-02-11T21:37:00;99562.59;;;4.92
20730;BMP280;10526;50.850;12.928;2023-02-11T21:41:23;99561.94;;;4.95
20730;BMP280;10526;50.850;12.928;2023-02-11T21:45:48;99575.59;;;4.97
20730;BMP280;10526;50.850;12.928;2023-02-11T21:50:10;99583.97;;;4.99
20730;BMP280;10526;50.850;12.928;2023-02-11T21:54:32;99572.78;;;5.02
20730;BMP280;10526;50.850;12.928;2023-02-11T21:58:57;99587.69;;;5.07
20730;BMP280;10526;50.850;12.928;2023-02-11T22:03:19;99586.63;;;5.08
20730;BMP280;10526;50.850;12.928;2023-02-11T22:07:41;99597.63;;;5.10
20730;BMP280;10526;50.850;12.928;2023-02-11T22:12:05;99603.03;;;5.13
20730;BMP280;10526;50.850;12.928;2023-02-11T22:16:30;99598.84;;;5.12
20730;BMP280;10526;50.850;12.928;2023-02-11T22:21:01;99597.34;;;5.11
20730;BMP280;10526;50.850;12.928;2023-02-11T22:25:23;99610.97;;;5.13
20730;BMP280;10526;50.850;12.928;2023-02-11T22:29:46;99620.16;;;5.16
20730;BMP280;10526;50.850;12.928;2023-02-11T22:34:09;99611.91;;;5.17
20730;BMP280;10526;50.850;12.928;2023-02-11T22:38:32;99617.97;;;5.18
20730;BMP280;10526;50.850;12.928;2023-02-11T22:42:54;99622.47;;;5.17
20730;BMP280;10526;50.850;12.928;2023-02-11T22:47:16;99621.69;;;5.17
20730;BMP280;10526;50.850;12.928;2023-02-11T22:51:39;99627.75;;;5.17
20730;BMP280;10526;50.850;12.928;2023-02-11T22:56:07;99639.56;;;5.20
20730;BMP280;10526;50.850;12.928;2023-02-11T23:00:35;99647.66;;;5.23
20730;BMP280;10526;50.850;12.928;2023-02-11T23:04:58;99643.59;;;5.26
20730;BMP280;10526;50.850;12.928;2023-02-11T23:09:20;99656.19;;;5.29
20730;BMP280;10526;50.850;12.928;2023-02-11T23:13:44;99649.47;;;5.32
20730;BMP280;10526;50.850;12.928;2023-02-11T23:18:08;99644.97;;;5.32
20730;BMP280;10526;50.850;12.928;2023-02-11T23:22:35;99642.00;;;5.34
20730;BMP280;10526;50.850;12.928;2023-02-11T23:26:57;99654.16;;;5.35
20730;BMP280;10526;50.850;12.928;2023-02-11T23:31:29;99660.03;;;5.32
20730;BMP280;10526;50.850;12.928;2023-02-11T23:35:51;99656.03;;;5.34
20730;BMP280;10526;50.850;12.928;2023-02-11T23:40:15;99648.09;;;5.34
20730;BMP280;10526;50.850;12.928;2023-02-11T23:44:38;99650.72;;;5.34
20730;BMP280;10526;50.850;12.928;2023-02-11T23:49:00;99657.25;;;5.37
20730;BMP280;10526;50.850;12.928;2023-02-11T23:53:25;99673.09;;;5.37
20730;BMP280;10526;50.850;12.928;2023-02-11T23:57:47;99669.06;;;5.39
